Time;durP1;ratioP1;P1;durP2;ratioP2;P2;SDS_P1;SDS_P2;PMS_P1;PMS_P2;Temp;Humidity;BMP_temperature;BMP_pressure;BME280_temperature;BME280_humidity;BME280_pressure;Samples;Min_cycle;Max_cycle;Signal;HPM_P1;HPM_P2
2021/10/30 00:00:23;;;;;;;11.60;1.58;;;24.00;66.40;;;;;;5078169;28;20043;-79
2021/10/30 00:02:51;;;;;;;5.68;1.55;;;24.30;65.20;;;;;;5079780;28;20024;-76
2021/10/30 00:05:18;;;;;;;6.00;1.90;;;24.30;64.40;;;;;;5079179;28;20668;-74
2021/10/30 00:07:45;;;;;;;6.38;1.83;;;24.50;64.50;;;;;;5082315;28;20065;-75
2021/10/30 00:10:15;;;;;;;7.80;1.20;;;24.60;64.10;;;;;;5088315;28;20028;-73
2021/10/30 00:12:43;;;;;;;5.32;1.15;;;25.00;63.10;;;;;;5081767;28;20105;-79
2021/10/30 00:15:12;;;;;;;6.72;1.52;;;25.10;62.70;;;;;;5077766;28;20092;-76
2021/10/30 00:17:40;;;;;;;9.25;1.10;;;24.20;63.00;;;;;;5077812;28;20475;-75
2021/10/30 00:20:08;;;;;;;7.40;1.45;;;23.20;64.90;;;;;;5079422;28;20035;-73
2021/10/30 00:22:36;;;;;;;7.10;1.38;;;22.40;66.70;;;;;;5079484;28;20027;-76
2021/10/30 00:25:05;;;;;;;4.85;1.10;;;22.30;68.40;;;;;;5083493;28;20024;-74
2021/10/30 00:27:32;;;;;;;7.65;1.90;;;22.90;68.60;;;;;;5078316;28;20025;-77
2021/10/30 00:30:00;;;;;;;5.57;1.13;;;23.80;66.40;;;;;;5081518;28;20024;-77
2021/10/30 00:32:27;;;;;;;4.45;1.48;;;24.40;65.00;;;;;;5085382;28;20059;-76
2021/10/30 00:34:54;;;;;;;9.75;0.98;;;24.70;64.00;;;;;;5081285;28;20021;-76
2021/10/30 00:37:21;;;;;;;3.88;0.98;;;24.90;62.60;;;;;;5083012;28;20812;-76
2021/10/30 00:39:49;;;;;;;5.75;0.88;;;25.20;61.80;;;;;;5080473;28;20043;-77
2021/10/30 00:42:16;;;;;;;6.10;1.15;;;25.30;62.30;;;;;;5084378;28;20020;-75
2021/10/30 00:44:44;;;;;;;2.20;0.75;;;25.40;61.00;;;;;;5079524;28;20036;-78
2021/10/30 00:47:13;;;;;;;11.38;2.05;;;25.30;62.30;;;;;;5084089;28;20029;-77
2021/10/30 00:49:43;;;;;;;4.45;0.85;;;24.80;61.50;;;;;;5081665;28;20083;-76
2021/10/30 00:52:13;;;;;;;4.53;0.98;;;24.30;61.60;;;;;;5089701;28;20103;-80
2021/10/30 00:54:43;;;;;;;4.80;1.05;;;24.30;61.60;;;;;;5090870;28;20030;-79
2021/10/30 00:57:12;;;;;;;4.68;1.23;;;24.00;62.60;;;;;;5091530;28;20074;-77
2021/10/30 00:59:39;;;;;;;5.38;0.77;;;23.90;62.30;;;;;;5092952;28;20028;-76
2021/10/30 01:02:07;;;;;;;5.63;1.05;;;23.80;61.60;;;;;;5086221;28;20032;-76
2021/10/30 01:04:34;;;;;;;7.03;1.65;;;23.40;62.00;;;;;;5090464;28;20055;-74
2021/10/30 01:07:05;;;;;;;6.15;0.68;;;23.70;61.50;;;;;;5076587;28;20024;-76
2021/10/30 01:09:33;;;;;;;11.80;1.23;;;24.00;60.70;;;;;;5085210;28;20059;-77
2021/10/30 01:12:01;;;;;;;9.02;1.90;;;24.20;59.60;;;;;;5083994;28;20034;-77
2021/10/30 01:14:29;;;;;;;3.70;0.82;;;24.20;58.90;;;;;;5071783;28;20395;-75
2021/10/30 01:17:03;;;;;;;2.65;0.80;;;23.80;59.80;;;;;;5088999;28;20078;-76
2021/10/30 01:19:33;;;;;;;3.63;0.70;;;23.30;60.40;;;;;;5091921;28;20028;-77
2021/10/30 01:22:01;;;;;;;4.57;1.55;;;23.10;61.00;;;;;;5084189;28;20115;-77
2021/10/30 01:24:28;;;;;;;6.72;0.90;;;23.40;60.80;;;;;;5058328;28;20036;-77
2021/10/30 01:26:56;;;;;;;6.30;0.73;;;23.80;60.70;;;;;;5088175;28;20059;-78
2021/10/30 01:29:25;;;;;;;5.20;0.90;;;24.50;59.60;;;;;;5093753;28;20023;-76
2021/10/30 01:31:53;;;;;;;3.20;1.02;;;24.90;58.70;;;;;;5069131;28;20131;-74
2021/10/30 01:34:25;;;;;;;3.38;0.90;;;25.20;57.60;;;;;;5091678;28;20035;-73
2021/10/30 01:36:52;;;;;;;4.35;1.55;;;25.60;57.20;;;;;;5089237;28;20062;-75
2021/10/30 01:39:20;;;;;;;6.30;1.10;;;26.00;56.50;;;;;;5093130;28;20031;-78
2021/10/30 01:41:47;;;;;;;5.28;0.68;;;26.00;56.00;;;;;;5087485;28;20064;-75
2021/10/30 01:44:23;;;;;;;3.63;1.33;;;25.80;56.80;;;;;;5081333;28;20051;-77
2021/10/30 01:47:00;;;;;;;7.70;0.80;;;25.50;56.50;;;;;;5087706;28;20022;-81
2021/10/30 01:49:29;;;;;;;5.22;1.25;;;25.50;56.60;;;;;;5092299;28;20475;-80
2021/10/30 01:51:57;;;;;;;4.22;0.80;;;25.70;56.20;;;;;;5089553;28;20114;-78
2021/10/30 01:54:24;;;;;;;4.47;0.90;;;25.70;55.50;;;;;;5086700;28;20111;-77
2021/10/30 01:56:52;;;;;;;6.25;1.42;;;25.30;55.70;;;;;;5085522;28;20028;-79
2021/10/30 01:59:20;;;;;;;5.97;1.00;;;25.20;55.90;;;;;;5060983;28;20059;-77
2021/10/30 02:01:47;;;;;;;4.72;0.90;;;25.30;56.40;;;;;;5079973;28;20028;-77
2021/10/30 02:04:15;;;;;;;2.88;1.08;;;25.40;55.80;;;;;;5080496;28;20124;-76
2021/10/30 02:06:42;;;;;;;3.33;0.57;;;25.60;56.00;;;;;;5079514;28;20427;-74
2021/10/30 02:09:09;;;;;;;4.57;0.90;;;25.30;55.60;;;;;;5083630;28;20479;-78
2021/10/30 02:11:37;;;;;;;6.38;1.00;;;24.50;56.40;;;;;;5079960;28;20032;-77
2021/10/30 02:14:04;;;;;;;6.15;1.05;;;24.30;57.60;;;;;;5078207;28;20114;-74
2021/10/30 02:16:31;;;;;;;3.92;0.70;;;24.30;56.90;;;;;;5079508;28;20355;-74
2021/10/30 02:18:59;;;;;;;5.50;1.23;;;24.60;56.30;;;;;;5079518;28;20024;-77
2021/10/30 02:21:26;;;;;;;7.95;0.80;;;24.80;56.00;;;;;;5077212;28;20040;-74
2021/10/30 02:23:53;;;;;;;7.82;1.08;;;25.10;56.10;;;;;;5080881;28;20383;-74
2021/10/30 02:26:21;;;;;;;2.15;0.85;;;25.70;55.30;;;;;;5084561;28;20032;-75
2021/10/30 02:28:48;;;;;;;4.72;1.45;;;25.80;55.10;;;;;;5087045;28;20490;-76
2021/10/30 02:31:15;;;;;;;3.63;0.57;;;25.90;55.70;;;;;;5078889;28;20043;-76
2021/10/30 02:33:43;;;;;;;4.60;1.02;;;26.10;54.80;;;;;;5087545;28;20449;-76
2021/10/30 02:36:10;;;;;;;6.43;1.10;;;25.50;54.20;;;;;;5083967;28;20028;-73
2021/10/30 02:38:37;;;;;;;4.63;1.20;;;24.60;55.50;;;;;;5083687;28;21664;-78
2021/10/30 02:41:05;;;;;;;7.95;2.38;;;24.00;56.60;;;;;;5083588;28;20378;-74
2021/10/30 02:43:32;;;;;;;5.13;0.85;;;23.90;57.70;;;;;;5082042;28;20031;-78
2021/10/30 02:46:00;;;;;;;4.70;0.93;;;24.20;58.10;;;;;;5084872;28;22646;-76
2021/10/30 02:48:27;;;;;;;4.50;1.33;;;24.40;56.70;;;;;;5067416;28;20032;-74
2021/10/30 02:50:56;;;;;;;6.32;0.90;;;24.70;57.00;;;;;;5083010;28;20035;-73
2021/10/30 02:53:23;;;;;;;6.32;1.65;;;24.90;56.80;;;;;;5087389;28;20094;-77
2021/10/30 02:55:50;;;;;;;2.15;0.65;;;25.10;55.70;;;;;;5085662;28;20104;-74
2021/10/30 02:58:18;;;;;;;4.45;0.80;;;25.60;55.80;;;;;;5082399;28;20036;-73
2021/10/30 03:00:45;;;;;;;5.07;1.38;;;26.10;55.80;;;;;;5088286;28;20035;-73
2021/10/30 03:03:13;;;;;;;2.95;0.80;;;25.40;53.60;;;;;;5093905;28;20046;-75
2021/10/30 03:05:40;;;;;;;5.80;1.23;;;24.30;55.50;;;;;;5095422;28;20157;-75
2021/10/30 03:08:08;;;;;;;5.68;0.63;;;23.90;56.80;;;;;;5082940;28;20009;-76
2021/10/30 03:10:35;;;;;;;4.00;1.10;;;23.60;57.60;;;;;;5086367;28;20028;-73
2021/10/30 03:13:03;;;;;;;5.88;0.70;;;23.90;58.30;;;;;;5090688;28;20024;-77
2021/10/30 03:15:30;;;;;;;3.60;0.90;;;24.00;57.40;;;;;;5085255;28;20020;-73
2021/10/30 03:17:57;;;;;;;8.85;1.35;;;23.60;57.90;;;;;;5084936;28;20378;-76
2021/10/30 03:20:25;;;;;;;5.15;1.17;;;23.60;58.10;;;;;;5084187;28;20087;-77
2021/10/30 03:22:52;;;;;;;4.85;1.20;;;23.80;57.20;;;;;;5082213;28;20029;-77
2021/10/30 03:25:19;;;;;;;4.68;0.63;;;24.10;56.90;;;;;;5081357;28;22081;-77
2021/10/30 03:27:47;;;;;;;4.30;1.10;;;24.40;56.00;;;;;;5083344;28;20016;-77
2021/10/30 03:30:14;;;;;;;4.30;0.80;;;24.60;57.80;;;;;;5079312;28;20032;-73
2021/10/30 03:32:42;;;;;;;3.72;0.65;;;25.30;55.90;;;;;;5082444;28;20055;-75
2021/10/30 03:35:09;;;;;;;8.13;1.90;;;25.20;54.40;;;;;;5085462;28;20036;-77
2021/10/30 03:37:37;;;;;;;1.27;0.35;;;24.30;55.30;;;;;;5084192;28;20121;-77
2021/10/30 03:40:07;;;;;;;7.28;1.45;;;23.60;57.20;;;;;;5082710;28;20128;-76
2021/10/30 03:42:35;;;;;;;6.28;1.00;;;22.90;58.30;;;;;;5078112;28;20697;-74
2021/10/30 03:45:05;;;;;;;3.10;0.47;;;22.30;59.50;;;;;;5082348;28;20103;-76
2021/10/30 03:47:33;;;;;;;3.33;0.80;;;22.10;60.10;;;;;;5080999;28;20035;-78
2021/10/30 03:50:00;;;;;;;1.98;0.68;;;22.20;60.20;;;;;;5081554;28;20031;-76
2021/10/30 03:52:28;;;;;;;4.47;0.80;;;22.20;59.50;;;;;;5077642;28;20391;-75
2021/10/30 03:54:55;;;;;;;2.08;1.55;;;22.20;60.00;;;;;;5082051;28;20024;-75
2021/10/30 03:57:23;;;;;;;3.80;0.73;;;22.20;60.40;;;;;;5082353;28;20031;-74
2021/10/30 03:59:50;;;;;;;4.88;0.93;;;22.10;60.30;;;;;;5087755;28;20032;-77
2021/10/30 04:02:19;;;;;;;5.93;0.77;;;21.90;60.50;;;;;;5082306;28;20582;-74
2021/10/30 04:04:46;;;;;;;3.15;0.85;;;21.60;60.70;;;;;;5083831;28;20040;-75
2021/10/30 04:07:13;;;;;;;1.73;0.70;;;21.40;61.20;;;;;;5079544;28;20505;-76
2021/10/30 04:09:41;;;;;;;4.72;0.52;;;21.80;61.60;;;;;;5077856;28;20044;-77
2021/10/30 04:12:09;;;;;;;7.20;1.45;;;22.60;60.60;;;;;;5079228;28;20422;-75
2021/10/30 04:14:36;;;;;;;3.78;0.82;;;22.90;60.10;;;;;;5080048;28;20025;-73
2021/10/30 04:17:05;;;;;;;3.70;0.90;;;22.40;59.00;;;;;;5060443;28;20052;-74
2021/10/30 04:19:32;;;;;;;3.28;0.57;;;22.10;59.90;;;;;;5077453;28;20053;-74
2021/10/30 04:22:00;;;;;;;3.10;0.80;;;21.80;60.90;;;;;;5082587;28;20036;-74
2021/10/30 04:24:27;;;;;;;9.02;1.00;;;21.70;60.80;;;;;;5086162;28;20020;-76
2021/10/30 04:26:55;;;;;;;3.50;1.40;;;21.90;61.10;;;;;;5079062;28;20093;-74
2021/10/30 04:29:22;;;;;;;3.85;0.60;;;22.20;60.80;;;;;;5056558;28;20726;-76
2021/10/30 04:31:55;;;;;;;5.40;0.90;;;22.40;61.30;;;;;;5073602;28;20044;-76
2021/10/30 04:34:33;;;;;;;8.27;1.15;;;22.50;60.70;;;;;;5060397;28;21492;-77
2021/10/30 04:37:02;;;;;;;6.05;1.08;;;22.80;61.00;;;;;;5054827;28;20503;-73
2021/10/30 04:39:31;;;;;;;6.88;0.90;;;22.80;60.00;;;;;;5078382;28;20111;-75
2021/10/30 04:41:58;;;;;;;2.97;0.88;;;22.70;60.40;;;;;;5082697;28;20043;-77
2021/10/30 04:44:25;;;;;;;6.40;1.13;;;22.70;60.80;;;;;;5065008;28;20020;-74
2021/10/30 04:46:53;;;;;;;4.57;0.60;;;22.50;60.80;;;;;;5062684;28;20522;-77
2021/10/30 04:49:20;;;;;;;3.45;1.17;;;22.20;61.10;;;;;;5062707;28;20024;-75
2021/10/30 04:51:47;;;;;;;8.48;1.25;;;21.80;61.70;;;;;;5067193;28;20063;-74
2021/10/30 04:54:15;;;;;;;5.60;1.02;;;21.40;62.00;;;;;;5065271;28;20027;-78
2021/10/30 04:56:42;;;;;;;8.57;1.17;;;21.00;62.90;;;;;;5049759;28;20486;-73
2021/10/30 04:59:09;;;;;;;3.60;0.63;;;20.60;63.80;;;;;;5067221;28;20031;-74
2021/10/30 05:01:37;;;;;;;4.68;0.77;;;20.40;64.60;;;;;;5074854;28;20105;-83
2021/10/30 05:04:04;;;;;;;5.47;0.93;;;20.60;64.70;;;;;;5062769;28;20056;-73
2021/10/30 05:06:32;;;;;;;2.72;1.00;;;21.10;64.30;;;;;;5058794;28;20039;-76
2021/10/30 05:08:59;;;;;;;5.75;0.60;;;21.60;63.20;;;;;;5067910;28;20111;-76
2021/10/30 05:11:26;;;;;;;5.10;0.90;;;22.10;62.40;;;;;;5076839;28;20020;-74
2021/10/30 05:13:54;;;;;;;3.83;0.88;;;21.90;61.50;;;;;;5081390;28;20028;-74
2021/10/30 05:16:21;;;;;;;2.72;0.57;;;21.30;62.00;;;;;;5075404;28;20102;-73
2021/10/30 05:18:48;;;;;;;8.82;1.27;;;20.80;63.50;;;;;;5080915;28;20024;-73
2021/10/30 05:21:16;;;;;;;3.90;0.70;;;20.60;64.30;;;;;;5076050;28;20123;-74
2021/10/30 05:23:44;;;;;;;1.77;0.52;;;20.30;64.90;;;;;;5067853;28;20021;-72
2021/10/30 05:26:11;;;;;;;2.67;0.65;;;20.20;65.70;;;;;;5066651;28;20125;-72
2021/10/30 05:28:39;;;;;;;9.65;1.13;;;20.40;66.20;;;;;;5071617;28;20763;-72
2021/10/30 05:31:06;;;;;;;7.47;1.02;;;20.90;64.90;;;;;;5069386;28;20073;-71
2021/10/30 05:33:34;;;;;;;5.80;1.05;;;21.20;65.00;;;;;;5066747;28;20035;-72
2021/10/30 05:36:04;;;;;;;6.72;0.90;;;21.60;62.80;;;;;;5065712;28;20032;-83
2021/10/30 05:38:32;;;;;;;2.70;1.05;;;21.40;62.70;;;;;;5062970;28;20058;-73
2021/10/30 05:41:01;;;;;;;2.13;0.60;;;20.80;63.50;;;;;;5076511;28;20039;-72
2021/10/30 05:43:28;;;;;;;2.47;0.50;;;20.40;64.20;;;;;;5074988;28;20157;-74
2021/10/30 05:45:56;;;;;;;3.35;0.52;;;19.90;65.30;;;;;;5085080;28;20494;-83
2021/10/30 05:48:23;;;;;;;5.30;0.80;;;19.70;66.00;;;;;;5066501;28;20106;-76
2021/10/30 05:50:51;;;;;;;2.97;0.85;;;19.60;66.60;;;;;;5079022;28;20248;-72
2021/10/30 05:53:18;;;;;;;5.70;1.42;;;19.90;66.60;;;;;;5087704;28;20502;-86
2021/10/30 05:55:45;;;;;;;4.03;0.77;;;20.20;66.10;;;;;;5077677;28;20447;-71
2021/10/30 05:58:13;;;;;;;2.60;0.60;;;20.10;65.50;;;;;;5089395;28;20020;-71
2021/10/30 06:00:40;;;;;;;3.97;0.50;;;19.80;65.90;;;;;;5075027;28;20094;-76
2021/10/30 06:03:09;;;;;;;5.65;1.48;;;19.40;67.00;;;;;;5068779;28;20055;-76
2021/10/30 06:05:37;;;;;;;3.35;0.77;;;19.20;67.70;;;;;;5069187;28;20024;-76
2021/10/30 06:08:04;;;;;;;2.20;0.90;;;19.10;68.00;;;;;;5069295;28;20036;-80
2021/10/30 06:10:34;;;;;;;1.38;0.98;;;19.10;68.00;;;;;;5071250;28;20039;-76
2021/10/30 06:13:01;;;;;;;4.30;0.60;;;19.40;68.30;;;;;;5067562;28;20060;-78
2021/10/30 06:15:29;;;;;;;2.47;0.45;;;19.70;67.90;;;;;;5069388;28;20036;-76
2021/10/30 06:17:56;;;;;;;3.50;0.93;;;19.70;67.70;;;;;;5071193;28;20032;-76
2021/10/30 06:20:23;;;;;;;2.58;0.73;;;19.50;67.40;;;;;;5087003;28;20031;-78
2021/10/30 06:22:51;;;;;;;4.32;0.93;;;19.20;68.10;;;;;;5088751;28;20181;-72
2021/10/30 06:25:18;;;;;;;5.97;0.60;;;19.00;68.70;;;;;;5084158;28;20028;-74
2021/10/30 06:27:45;;;;;;;2.92;0.52;;;18.80;68.80;;;;;;5094116;28;20020;-78
2021/10/30 06:30:13;;;;;;;5.35;0.80;;;18.70;69.00;;;;;;5081235;28;20024;-78
2021/10/30 06:32:41;;;;;;;3.28;0.50;;;18.60;69.10;;;;;;5081713;28;20044;-77
2021/10/30 06:35:11;;;;;;;3.08;0.55;;;18.50;69.40;;;;;;5085879;28;20534;-75
2021/10/30 06:37:39;;;;;;;2.28;0.77;;;18.40;69.60;;;;;;5073754;28;20016;-74
2021/10/30 06:40:15;;;;;;;6.85;0.85;;;18.30;70.70;;;;;;5082315;28;20085;-79
2021/10/30 06:42:44;;;;;;;4.28;0.90;;;18.20;71.00;;;;;;5094562;28;20471;-76
2021/10/30 06:45:12;;;;;;;2.90;1.05;;;18.10;70.90;;;;;;5096375;28;20066;-78
2021/10/30 06:47:40;;;;;;;2.72;1.00;;;18.10;71.00;;;;;;5099038;28;20344;-74
2021/10/30 06:50:19;;;;;;;3.33;0.50;;;18.00;71.00;;;;;;5092934;28;20016;-75
2021/10/30 06:52:48;;;;;;;2.65;0.98;;;17.90;71.30;;;;;;5074064;28;20079;-78
2021/10/30 06:55:15;;;;;;;3.78;0.57;;;17.80;71.70;;;;;;5074721;28;20028;-76
2021/10/30 06:57:43;;;;;;;4.28;1.00;;;17.70;71.80;;;;;;5085220;28;20024;-77
2021/10/30 07:00:11;;;;;;;8.02;0.50;;;17.60;71.90;;;;;;5092151;28;20524;-76
2021/10/30 07:02:40;;;;;;;3.30;1.00;;;17.60;71.80;;;;;;5088361;28;20028;-77
2021/10/30 07:05:08;;;;;;;6.68;0.90;;;17.70;71.90;;;;;;5077620;28;20055;-77
2021/10/30 07:07:36;;;;;;;16.35;1.85;;;17.70;71.90;;;;;;5078284;28;20031;-77
2021/10/30 07:10:05;;;;;;;8.55;0.52;;;17.80;72.00;;;;;;5080623;28;20024;-78
2021/10/30 07:12:37;;;;;;;3.45;0.50;;;17.80;71.40;;;;;;5073566;28;20024;-76
2021/10/30 07:15:06;;;;;;;7.05;0.70;;;17.80;71.20;;;;;;5075725;28;20471;-78
2021/10/30 07:17:33;;;;;;;3.20;0.60;;;17.70;71.20;;;;;;5078954;28;20029;-78
2021/10/30 07:20:01;;;;;;;4.68;0.77;;;17.60;71.10;;;;;;5085533;28;20077;-72
2021/10/30 07:22:28;;;;;;;7.18;0.95;;;17.50;71.70;;;;;;5085530;28;21845;-78
2021/10/30 07:24:55;;;;;;;2.03;1.10;;;17.40;72.20;;;;;;5084374;28;20024;-79
2021/10/30 07:27:23;;;;;;;7.47;0.60;;;17.30;72.50;;;;;;5088412;28;20032;-77
2021/10/30 07:29:52;;;;;;;5.97;0.88;;;17.30;72.60;;;;;;5074554;28;20020;-75
2021/10/30 07:32:20;;;;;;;3.50;1.10;;;17.30;73.00;;;;;;5087073;28;20532;-78
2021/10/30 07:34:47;;;;;;;2.00;0.50;;;17.20;72.30;;;;;;5082443;28;20471;-75
2021/10/30 07:37:15;;;;;;;5.15;0.60;;;17.20;72.70;;;;;;5086714;28;20032;-78
2021/10/30 07:39:42;;;;;;;6.82;0.68;;;17.10;73.00;;;;;;5091282;28;20158;-77
2021/10/30 07:42:10;;;;;;;3.65;0.93;;;17.10;73.30;;;;;;5078969;28;20035;-74
2021/10/30 07:44:41;;;;;;;3.33;0.80;;;17.20;73.60;;;;;;5075088;28;20069;-78
2021/10/30 07:47:09;;;;;;;4.90;0.65;;;17.20;73.00;;;;;;5088713;28;20039;-76
2021/10/30 07:49:37;;;;;;;3.97;1.50;;;17.20;73.00;;;;;;5088507;28;20012;-79
2021/10/30 07:52:07;;;;;;;4.45;0.60;;;17.10;73.50;;;;;;5076955;28;20097;-71
2021/10/30 07:54:35;;;;;;;2.28;0.50;;;17.10;73.50;;;;;;5075331;28;20487;-79
2021/10/30 07:57:04;;;;;;;3.88;0.55;;;17.10;73.60;;;;;;5089057;28;20020;-75
2021/10/30 07:59:31;;;;;;;3.95;0.60;;;17.10;73.60;;;;;;5090358;28;20082;-75
2021/10/30 08:02:00;;;;;;;7.10;1.10;;;17.10;73.60;;;;;;5092873;28;20036;-79
2021/10/30 08:04:37;;;;;;;3.20;0.65;;;17.10;73.70;;;;;;5084449;28;20062;-79
2021/10/30 08:07:06;;;;;;;2.60;0.95;;;17.10;74.10;;;;;;5087138;28;20024;-74
2021/10/30 08:09:33;;;;;;;5.40;0.75;;;17.00;73.90;;;;;;5083032;28;20020;-76
2021/10/30 08:12:01;;;;;;;5.35;0.75;;;16.90;74.30;;;;;;5080960;28;20020;-75
2021/10/30 08:14:28;;;;;;;4.20;0.75;;;16.90;74.50;;;;;;5090868;28;20498;-75
2021/10/30 08:16:56;;;;;;;7.15;0.60;;;16.80;74.40;;;;;;5090583;28;20436;-72
2021/10/30 08:19:23;;;;;;;2.58;0.85;;;16.70;74.30;;;;;;5080132;28;20510;-71
2021/10/30 08:21:50;;;;;;;7.57;2.03;;;16.80;74.70;;;;;;5090169;28;20069;-75
2021/10/30 08:24:18;;;;;;;2.40;0.68;;;16.70;74.70;;;;;;5085659;28;20020;-76
2021/10/30 08:26:45;;;;;;;2.38;0.50;;;16.60;74.70;;;;;;5090126;28;20320;-72
2021/10/30 08:29:12;;;;;;;4.07;1.38;;;16.60;74.80;;;;;;5086110;28;20029;-73
2021/10/30 08:31:40;;;;;;;5.10;0.90;;;16.60;75.10;;;;;;5085174;28;20065;-75
2021/10/30 08:34:07;;;;;;;4.28;1.15;;;16.70;75.20;;;;;;5094006;28;20032;-75
2021/10/30 08:36:35;;;;;;;5.38;0.80;;;16.60;74.90;;;;;;5082334;28;20471;-74
2021/10/30 08:39:03;;;;;;;4.22;1.08;;;16.70;74.80;;;;;;5081364;28;20111;-72
2021/10/30 08:41:31;;;;;;;6.85;0.98;;;16.80;75.10;;;;;;5084644;28;20038;-76
2021/10/30 08:44:00;;;;;;;3.03;0.93;;;16.80;74.50;;;;;;5081843;28;20020;-74
2021/10/30 08:46:28;;;;;;;7.95;0.90;;;16.70;75.20;;;;;;5078143;28;20111;-75
2021/10/30 08:48:56;;;;;;;7.75;1.25;;;16.70;75.10;;;;;;5086942;28;20031;-79
2021/10/30 08:51:23;;;;;;;2.03;0.68;;;16.60;74.90;;;;;;5085320;28;20036;-75
2021/10/30 08:53:50;;;;;;;7.70;0.73;;;16.70;75.60;;;;;;5081739;28;20020;-79
2021/10/30 08:56:18;;;;;;;5.78;0.70;;;16.70;75.40;;;;;;5076953;28;20435;-77
2021/10/30 08:58:45;;;;;;;2.60;0.52;;;16.70;75.50;;;;;;5076937;28;20028;-77
2021/10/30 09:01:13;;;;;;;1.67;0.63;;;16.70;75.50;;;;;;5079498;28;20044;-75
2021/10/30 09:03:41;;;;;;;7.15;1.40;;;16.80;75.20;;;;;;5079431;28;20029;-77
2021/10/30 09:06:09;;;;;;;3.25;0.65;;;16.80;75.30;;;;;;5087439;28;20115;-75
2021/10/30 09:08:36;;;;;;;4.40;0.50;;;16.70;75.70;;;;;;5093284;28;20020;-78
2021/10/30 09:11:09;;;;;;;7.85;1.13;;;16.70;75.70;;;;;;5077976;28;21226;-75
2021/10/30 09:13:37;;;;;;;4.15;0.88;;;16.70;75.90;;;;;;5091438;28;20032;-76
2021/10/30 09:16:07;;;;;;;5.07;1.00;;;16.80;75.70;;;;;;5083645;28;20021;-76
2021/10/30 09:18:37;;;;;;;2.58;0.70;;;16.70;75.70;;;;;;5073367;28;20055;-74
2021/10/30 09:21:04;;;;;;;2.08;0.75;;;16.70;75.80;;;;;;5072154;28;20044;-76
2021/10/30 09:23:37;;;;;;;6.22;0.88;;;16.60;75.90;;;;;;5086196;28;20020;-75
2021/10/30 09:26:07;;;;;;;5.75;1.48;;;16.70;76.20;;;;;;5056702;28;20024;-77
2021/10/30 09:28:37;;;;;;;3.50;0.98;;;16.70;76.60;;;;;;5077286;28;20347;-77
2021/10/30 09:31:15;;;;;;;14.23;1.45;;;16.60;75.70;;;;;;5074459;28;20040;-79
2021/10/30 09:34:07;;;;;;;4.07;1.05;;;16.70;75.70;;;;;;5086137;28;20518;-76
2021/10/30 09:36:38;;;;;;;5.10;0.60;;;16.70;75.80;;;;;;5076253;28;20025;-75
2021/10/30 09:39:14;;;;;;;7.70;0.95;;;16.70;76.10;;;;;;5075578;28;20027;-80
2021/10/30 09:41:47;;;;;;;5.35;1.42;;;16.70;75.90;;;;;;5084200;28;20039;-75
2021/10/30 09:44:18;;;;;;;6.93;0.70;;;16.70;76.40;;;;;;5085538;28;20016;-77
2021/10/30 09:46:46;;;;;;;2.50;0.68;;;16.70;76.20;;;;;;5084261;28;20467;-77
2021/10/30 09:49:40;;;;;;;6.55;0.95;;;16.70;75.90;;;;;;5084096;28;20032;-76
2021/10/30 09:52:10;;;;;;;3.85;0.98;;;16.70;76.00;;;;;;5073768;28;20048;-80
2021/10/30 09:54:46;;;;;;;8.65;2.10;;;16.60;76.20;;;;;;5073955;28;20044;-76
2021/10/30 09:57:16;;;;;;;4.15;0.75;;;16.70;76.80;;;;;;5085071;28;20070;-78
2021/10/30 09:59:45;;;;;;;4.95;0.65;;;16.60;76.60;;;;;;5079343;28;20171;-78
2021/10/30 10:02:14;;;;;;;5.38;0.60;;;16.60;76.90;;;;;;5078811;28;20080;-74
2021/10/30 10:04:43;;;;;;;2.38;1.42;;;16.60;77.30;;;;;;5077797;28;20020;-79
2021/10/30 10:07:10;;;;;;;5.10;1.65;;;16.60;76.60;;;;;;5078001;28;20032;-75
2021/10/30 10:09:38;;;;;;;5.57;1.25;;;16.50;77.30;;;;;;5079941;28;20102;-74
2021/10/30 10:12:06;;;;;;;2.70;0.77;;;16.50;77.40;;;;;;5084331;28;20087;-72
2021/10/30 10:14:35;;;;;;;7.97;1.05;;;16.60;77.00;;;;;;5079052;28;20032;-73
2021/10/30 10:17:02;;;;;;;2.28;0.55;;;16.60;77.40;;;;;;5080691;28;20107;-76
2021/10/30 10:19:31;;;;;;;6.97;0.73;;;16.50;77.40;;;;;;5078607;28;20409;-74
2021/10/30 10:22:00;;;;;;;1.83;0.45;;;16.60;77.80;;;;;;5079816;28;20066;-76
2021/10/30 10:24:34;;;;;;;5.20;0.75;;;16.50;77.60;;;;;;5074947;28;20020;-73
2021/10/30 10:27:04;;;;;;;6.55;0.85;;;16.60;77.60;;;;;;5076346;28;20044;-75
2021/10/30 10:29:36;;;;;;;2.28;0.40;;;16.60;77.40;;;;;;5072405;28;20128;-75
2021/10/30 10:32:10;;;;;;;6.10;1.00;;;16.60;77.60;;;;;;5073911;28;20040;-80
2021/10/30 10:34:44;;;;;;;2.63;0.52;;;16.60;77.90;;;;;;5085459;28;20031;-79
2021/10/30 10:37:17;;;;;;;6.22;0.90;;;16.60;77.60;;;;;;5081883;28;20097;-75
2021/10/30 10:39:48;;;;;;;8.75;1.02;;;16.60;77.80;;;;;;5076628;28;20032;-74
2021/10/30 10:42:35;;;;;;;1.15;0.30;;;16.60;78.00;;;;;;5074798;28;20147;-73
2021/10/30 10:45:13;;;;;;;3.10;0.65;;;16.50;78.30;;;;;;5082835;28;20025;-75
2021/10/30 10:47:49;;;;;;;4.68;0.68;;;16.50;78.80;;;;;;5078723;28;20024;-75
2021/10/30 10:50:19;;;;;;;3.10;0.50;;;16.50;78.30;;;;;;5077796;28;20023;-74
2021/10/30 10:53:15;;;;;;;3.08;1.02;;;16.50;78.20;;;;;;5074453;28;20020;-72
2021/10/30 10:55:49;;;;;;;2.33;0.40;;;16.50;78.20;;;;;;5050505;28;20037;-78
2021/10/30 10:58:16;;;;;;;2.72;0.73;;;16.60;78.60;;;;;;5084538;28;20952;-75
2021/10/30 11:01:07;;;;;;;3.78;0.60;;;16.50;78.60;;;;;;5082661;28;20044;-77
2021/10/30 11:03:44;;;;;;;2.20;0.50;;;16.50;78.80;;;;;;5079291;28;20051;-76
2021/10/30 11:06:12;;;;;;;2.42;0.50;;;16.50;79.10;;;;;;5081176;28;20093;-76
2021/10/30 11:08:39;;;;;;;2.97;0.50;;;16.60;79.10;;;;;;5083609;28;20073;-76
2021/10/30 11:11:11;;;;;;;4.20;0.93;;;16.50;79.00;;;;;;5079008;28;20031;-78
2021/10/30 11:13:57;;;;;;;2.00;0.82;;;16.50;79.10;;;;;;5084272;28;20024;-75
2021/10/30 11:16:28;;;;;;;3.75;1.05;;;16.50;79.10;;;;;;5080448;28;20032;-72
2021/10/30 11:19:16;;;;;;;2.63;0.77;;;16.50;79.50;;;;;;5084360;28;20403;-76
2021/10/30 11:21:47;;;;;;;2.92;0.40;;;16.50;79.40;;;;;;5086739;28;20078;-76
2021/10/30 11:24:21;;;;;;;2.75;0.63;;;16.50;79.50;;;;;;5085499;28;20036;-77
2021/10/30 11:27:01;;;;;;;4.43;0.88;;;16.40;79.70;;;;;;5087994;28;20081;-75
2021/10/30 11:29:29;;;;;;;2.92;0.82;;;16.40;79.70;;;;;;5088828;28;20161;-76
2021/10/30 11:32:05;;;;;;;3.35;0.95;;;16.40;79.60;;;;;;5089708;28;20051;-76
2021/10/30 11:34:32;;;;;;;;;;;16.40;80.00;;;;;;5087741;28;20055;-76
2021/10/30 11:36:59;;;;;;;3.15;0.40;;;16.30;80.10;;;;;;5086067;28;19912;-77
2021/10/30 11:39:30;;;;;;;2.72;0.50;;;16.30;80.40;;;;;;5086074;28;20036;-76
2021/10/30 11:42:02;;;;;;;3.90;0.73;;;16.20;80.50;;;;;;5086412;28;20119;-76
2021/10/30 11:44:30;;;;;;;2.25;0.43;;;16.10;80.60;;;;;;5092494;28;20036;-77
2021/10/30 11:46:59;;;;;;;2.20;0.40;;;16.10;80.90;;;;;;5091347;28;20085;-77
2021/10/30 11:49:31;;;;;;;0.98;0.40;;;16.10;81.20;;;;;;5090309;28;20065;-77
2021/10/30 11:52:07;;;;;;;2.40;0.45;;;16.00;81.40;;;;;;5072913;28;20063;-75
2021/10/30 11:54:36;;;;;;;4.82;0.68;;;15.90;81.90;;;;;;5091421;28;20368;-78
2021/10/30 11:57:10;;;;;;;3.25;0.63;;;15.70;81.90;;;;;;5091477;28;20106;-80
2021/10/30 11:59:44;;;;;;;2.53;0.65;;;15.70;82.30;;;;;;5092783;28;20024;-77
2021/10/30 12:02:16;;;;;;;2.35;0.50;;;15.50;82.70;;;;;;5084623;28;20049;-74
2021/10/30 12:04:43;;;;;;;4.60;0.68;;;15.50;83.30;;;;;;5091045;28;20020;-72
2021/10/30 12:07:13;;;;;;;3.60;0.60;;;15.40;83.70;;;;;;5083625;28;20024;-77
2021/10/30 12:09:42;;;;;;;6.63;0.52;;;15.30;84.30;;;;;;5081903;28;20107;-74
2021/10/30 12:12:20;;;;;;;4.65;1.17;;;15.20;84.90;;;;;;5087159;28;20020;-74
2021/10/30 12:14:52;;;;;;;4.97;0.47;;;15.20;85.40;;;;;;5090831;28;20032;-78
2021/10/30 12:17:23;;;;;;;1.65;0.50;;;15.10;85.90;;;;;;5089958;28;20024;-74
2021/10/30 12:20:01;;;;;;;3.75;0.60;;;15.10;86.50;;;;;;5091924;28;20046;-73
2021/10/30 12:22:32;;;;;;;5.60;0.90;;;15.10;87.20;;;;;;5075611;28;20075;-74
2021/10/30 12:25:08;;;;;;;5.90;0.85;;;15.20;87.40;;;;;;5088131;28;20032;-78
2021/10/30 12:27:56;;;;;;;6.53;0.80;;;15.30;87.50;;;;;;5081207;28;20036;-74
2021/10/30 12:30:31;;;;;;;3.33;0.50;;;15.30;87.30;;;;;;5075191;28;20031;-74
2021/10/30 12:33:18;;;;;;;1.75;1.35;;;15.40;87.20;;;;;;5087135;28;20072;-76
2021/10/30 12:35:50;;;;;;;1.67;0.60;;;15.50;87.20;;;;;;5089345;28;20105;-74
2021/10/30 12:38:20;;;;;;;3.85;1.08;;;15.50;87.30;;;;;;5093983;28;20036;-78
2021/10/30 12:40:49;;;;;;;9.15;0.90;;;15.50;87.10;;;;;;5092370;28;20123;-73
2021/10/30 12:43:26;;;;;;;4.82;0.52;;;15.50;87.20;;;;;;5090019;28;20016;-74
2021/10/30 12:45:57;;;;;;;0.95;0.32;;;15.60;87.30;;;;;;5092220;28;20483;-77
2021/10/30 12:48:35;;;;;;;4.75;0.90;;;15.60;87.20;;;;;;5093817;28;20049;-72
2021/10/30 12:51:26;;;;;;;2.95;0.40;;;15.50;87.20;;;;;;5082971;28;20116;-74
2021/10/30 12:54:04;;;;;;;4.68;1.42;;;15.60;87.60;;;;;;5094000;28;20070;-73
2021/10/30 12:56:42;;;;;;;5.78;1.48;;;15.60;87.40;;;;;;5091097;28;20036;-73
2021/10/30 12:59:12;;;;;;;5.88;0.85;;;15.60;87.70;;;;;;5084506;28;20051;-75